sensor_id;sensor_type;location;lat;lon;timestamp;P1;durP1;ratioP1;P2;durP2;ratioP2
69856;SDS011;57147;53.582;10.112;2023-04-24T00:01:37;8.80;;;6.30;;
69856;SDS011;57147;53.582;10.112;2023-04-24T00:06:40;7.25;;;5.18;;
69856;SDS011;57147;53.582;10.112;2023-04-24T00:11:41;5.78;;;4.82;;
69856;SDS011;57147;53.582;10.112;2023-04-24T00:16:42;7.15;;;4.78;;
69856;SDS011;57147;53.582;10.112;2023-04-24T00:21:45;7.45;;;6.13;;
69856;SDS011;57147;53.582;10.112;2023-04-24T00:26:45;6.45;;;4.68;;
69856;SDS011;57147;53.582;10.112;2023-04-24T00:31:46;6.40;;;4.78;;
69856;SDS011;57147;53.582;10.112;2023-04-24T00:36:49;5.82;;;4.53;;
69856;SDS011;57147;53.582;10.112;2023-04-24T00:41:50;7.32;;;5.25;;
69856;SDS011;57147;53.582;10.112;2023-04-24T00:46:51;6.10;;;5.43;;
69856;SDS011;57147;53.582;10.112;2023-04-24T00:51:55;7.32;;;6.13;;
69856;SDS011;57147;53.582;10.112;2023-04-24T00:56:55;6.07;;;5.05;;
69856;SDS011;57147;53.582;10.112;2023-04-24T01:01:56;6.20;;;5.22;;
69856;SDS011;57147;53.582;10.112;2023-04-24T01:07:00;7.38;;;5.47;;
69856;SDS011;57147;53.582;10.112;2023-04-24T01:12:01;6.90;;;5.78;;
69856;SDS011;57147;53.582;10.112;2023-04-24T01:17:01;6.55;;;5.63;;
69856;SDS011;57147;53.582;10.112;2023-04-24T01:27:11;7.80;;;4.88;;
69856;SDS011;57147;53.582;10.112;2023-04-24T01:32:12;7.10;;;5.13;;
69856;SDS011;57147;53.582;10.112;2023-04-24T01:37:17;6.63;;;4.93;;
69856;SDS011;57147;53.582;10.112;2023-04-24T01:42:17;5.50;;;4.57;;
69856;SDS011;57147;53.582;10.112;2023-04-24T01:47:18;5.15;;;4.07;;
69856;SDS011;57147;53.582;10.112;2023-04-24T01:52:22;5.05;;;4.10;;
69856;SDS011;57147;53.582;10.112;2023-04-24T01:57:22;4.30;;;3.63;;
69856;SDS011;57147;53.582;10.112;2023-04-24T02:02:23;5.40;;;4.15;;
69856;SDS011;57147;53.582;10.112;2023-04-24T02:07:26;4.25;;;3.47;;
69856;SDS011;57147;53.582;10.112;2023-04-24T02:12:27;5.53;;;3.95;;
69856;SDS011;57147;53.582;10.112;2023-04-24T02:17:27;3.97;;;3.05;;
69856;SDS011;57147;53.582;10.112;2023-04-24T02:22:31;5.22;;;4.20;;
69856;SDS011;57147;53.582;10.112;2023-04-24T02:27:32;4.93;;;3.58;;
69856;SDS011;57147;53.582;10.112;2023-04-24T02:32:32;4.75;;;3.95;;
69856;SDS011;57147;53.582;10.112;2023-04-24T02:37:36;2.95;;;2.40;;
69856;SDS011;57147;53.582;10.112;2023-04-24T02:42:36;4.15;;;3.40;;
69856;SDS011;57147;53.582;10.112;2023-04-24T02:47:37;2.97;;;2.60;;
69856;SDS011;57147;53.582;10.112;2023-04-24T02:52:40;2.97;;;2.22;;
69856;SDS011;57147;53.582;10.112;2023-04-24T02:57:41;2.58;;;2.38;;
69856;SDS011;57147;53.582;10.112;2023-04-24T03:02:41;2.72;;;1.77;;
69856;SDS011;57147;53.582;10.112;2023-04-24T03:07:44;2.75;;;1.92;;
69856;SDS011;57147;53.582;10.112;2023-04-24T03:12:45;4.28;;;1.85;;
69856;SDS011;57147;53.582;10.112;2023-04-24T03:17:46;3.15;;;1.52;;
69856;SDS011;57147;53.582;10.112;2023-04-24T03:22:49;1.75;;;1.63;;
69856;SDS011;57147;53.582;10.112;2023-04-24T03:27:49;1.80;;;1.27;;
69856;SDS011;57147;53.582;10.112;2023-04-24T03:32:50;2.45;;;2.25;;
69856;SDS011;57147;53.582;10.112;2023-04-24T03:37:53;2.33;;;2.13;;
69856;SDS011;57147;53.582;10.112;2023-04-24T03:42:54;2.40;;;1.35;;
69856;SDS011;57147;53.582;10.112;2023-04-24T03:47:54;2.50;;;2.30;;
69856;SDS011;57147;53.582;10.112;2023-04-24T03:52:57;2.80;;;1.92;;
69856;SDS011;57147;53.582;10.112;2023-04-24T03:57:58;4.93;;;4.53;;
69856;SDS011;57147;53.582;10.112;2023-04-24T04:02:59;2.85;;;1.95;;
69856;SDS011;57147;53.582;10.112;2023-04-24T04:08:02;1.88;;;1.67;;
69856;SDS011;57147;53.582;10.112;2023-04-24T04:13:03;3.35;;;2.67;;
69856;SDS011;57147;53.582;10.112;2023-04-24T04:18:03;2.88;;;2.25;;
69856;SDS011;57147;53.582;10.112;2023-04-24T04:23:07;2.83;;;2.58;;
69856;SDS011;57147;53.582;10.112;2023-04-24T04:28:07;3.35;;;2.08;;
69856;SDS011;57147;53.582;10.112;2023-04-24T04:33:08;2.55;;;2.35;;
69856;SDS011;57147;53.582;10.112;2023-04-24T04:38:11;1.92;;;1.50;;
69856;SDS011;57147;53.582;10.112;2023-04-24T04:43:12;1.73;;;1.42;;
69856;SDS011;57147;53.582;10.112;2023-04-24T04:48:12;4.20;;;1.63;;
69856;SDS011;57147;53.582;10.112;2023-04-24T04:53:18;2.72;;;1.35;;
69856;SDS011;57147;53.582;10.112;2023-04-24T04:58:20;1.90;;;1.63;;
69856;SDS011;57147;53.582;10.112;2023-04-24T05:08:43;3.63;;;1.10;;
69856;SDS011;57147;53.582;10.112;2023-04-24T05:13:44;1.50;;;1.17;;
69856;SDS011;57147;53.582;10.112;2023-04-24T05:18:45;1.98;;;1.20;;
69856;SDS011;57147;53.582;10.112;2023-04-24T05:23:49;1.80;;;1.50;;
69856;SDS011;57147;53.582;10.112;2023-04-24T05:28:49;1.80;;;1.00;;
69856;SDS011;57147;53.582;10.112;2023-04-24T05:33:50;1.42;;;0.88;;
69856;SDS011;57147;53.582;10.112;2023-04-24T05:38:53;2.10;;;1.15;;
69856;SDS011;57147;53.582;10.112;2023-04-24T05:43:54;1.98;;;0.85;;
69856;SDS011;57147;53.582;10.112;2023-04-24T05:48:55;1.83;;;1.33;;
69856;SDS011;57147;53.582;10.112;2023-04-24T05:53:58;2.08;;;1.80;;
69856;SDS011;57147;53.582;10.112;2023-04-24T05:58:58;1.67;;;1.08;;
69856;SDS011;57147;53.582;10.112;2023-04-24T06:03:59;5.18;;;0.85;;
69856;SDS011;57147;53.582;10.112;2023-04-24T06:09:02;1.65;;;1.55;;
69856;SDS011;57147;53.582;10.112;2023-04-24T06:14:03;2.28;;;1.38;;
69856;SDS011;57147;53.582;10.112;2023-04-24T06:19:04;2.80;;;0.85;;
69856;SDS011;57147;53.582;10.112;2023-04-24T06:24:07;1.58;;;1.45;;
69856;SDS011;57147;53.582;10.112;2023-04-24T06:29:11;1.77;;;1.67;;
69856;SDS011;57147;53.582;10.112;2023-04-24T06:34:11;1.80;;;1.67;;
69856;SDS011;57147;53.582;10.112;2023-04-24T06:39:15;3.17;;;2.88;;
69856;SDS011;57147;53.582;10.112;2023-04-24T06:44:15;1.50;;;1.15;;
69856;SDS011;57147;53.582;10.112;2023-04-24T06:49:16;1.70;;;1.48;;
69856;SDS011;57147;53.582;10.112;2023-04-24T06:54:19;2.33;;;1.45;;
69856;SDS011;57147;53.582;10.112;2023-04-24T06:59:20;2.53;;;1.95;;
69856;SDS011;57147;53.582;10.112;2023-04-24T07:04:21;2.83;;;2.60;;
69856;SDS011;57147;53.582;10.112;2023-04-24T07:09:25;2.90;;;1.67;;
69856;SDS011;57147;53.582;10.112;2023-04-24T07:14:26;3.58;;;3.17;;
69856;SDS011;57147;53.582;10.112;2023-04-24T07:19:27;2.95;;;1.98;;
69856;SDS011;57147;53.582;10.112;2023-04-24T07:24:30;2.72;;;2.17;;
69856;SDS011;57147;53.582;10.112;2023-04-24T07:29:31;2.45;;;2.08;;
69856;SDS011;57147;53.582;10.112;2023-04-24T07:34:31;3.75;;;3.42;;
69856;SDS011;57147;53.582;10.112;2023-04-24T07:39:35;5.20;;;2.72;;
69856;SDS011;57147;53.582;10.112;2023-04-24T07:44:36;3.15;;;2.85;;
69856;SDS011;57147;53.582;10.112;2023-04-24T07:49:37;1.92;;;0.98;;
69856;SDS011;57147;53.582;10.112;2023-04-24T07:54:40;2.58;;;2.30;;
69856;SDS011;57147;53.582;10.112;2023-04-24T07:59:40;2.63;;;1.92;;
69856;SDS011;57147;53.582;10.112;2023-04-24T08:04:41;4.10;;;3.80;;
69856;SDS011;57147;53.582;10.112;2023-04-24T08:09:44;3.15;;;2.35;;
69856;SDS011;57147;53.582;10.112;2023-04-24T08:14:45;3.42;;;3.13;;
69856;SDS011;57147;53.582;10.112;2023-04-24T08:19:46;3.88;;;3.47;;
69856;SDS011;57147;53.582;10.112;2023-04-24T08:24:49;4.13;;;3.38;;
69856;SDS011;57147;53.582;10.112;2023-04-24T08:29:50;3.95;;;3.15;;
69856;SDS011;57147;53.582;10.112;2023-04-24T08:34:50;3.58;;;3.28;;
69856;SDS011;57147;53.582;10.112;2023-04-24T08:39:53;3.35;;;2.97;;
69856;SDS011;57147;53.582;10.112;2023-04-24T08:44:54;3.67;;;2.97;;
69856;SDS011;57147;53.582;10.112;2023-04-24T08:49:55;3.58;;;3.17;;
69856;SDS011;57147;53.582;10.112;2023-04-24T08:55:00;8.38;;;6.13;;
69856;SDS011;57147;53.582;10.112;2023-04-24T09:00:01;5.30;;;3.63;;
69856;SDS011;57147;53.582;10.112;2023-04-24T09:05:02;5.20;;;3.92;;
69856;SDS011;57147;53.582;10.112;2023-04-24T09:10:06;3.42;;;2.83;;
69856;SDS011;57147;53.582;10.112;2023-04-24T09:15:08;4.45;;;4.05;;
69856;SDS011;57147;53.582;10.112;2023-04-24T09:20:09;4.13;;;3.70;;
69856;SDS011;57147;53.582;10.112;2023-04-24T09:25:13;6.40;;;2.80;;
69856;SDS011;57147;53.582;10.112;2023-04-24T09:30:14;4.88;;;4.43;;
69856;SDS011;57147;53.582;10.112;2023-04-24T09:35:21;7.28;;;5.35;;
69856;SDS011;57147;53.582;10.112;2023-04-24T09:40:25;4.40;;;3.42;;
69856;SDS011;57147;53.582;10.112;2023-04-24T09:45:27;4.65;;;4.20;;
69856;SDS011;57147;53.582;10.112;2023-04-24T09:50:29;6.93;;;3.45;;
69856;SDS011;57147;53.582;10.112;2023-04-24T09:55:33;5.60;;;4.18;;
69856;SDS011;57147;53.582;10.112;2023-04-24T10:00:39;6.30;;;4.10;;
69856;SDS011;57147;53.582;10.112;2023-04-24T10:05:39;6.82;;;6.22;;
69856;SDS011;57147;53.582;10.112;2023-04-24T10:10:43;5.75;;;4.15;;
69856;SDS011;57147;53.582;10.112;2023-04-24T10:15:45;5.57;;;5.00;;
69856;SDS011;57147;53.582;10.112;2023-04-24T10:20:49;7.15;;;5.63;;
69856;SDS011;57147;53.582;10.112;2023-04-24T10:25:52;7.15;;;5.15;;
69856;SDS011;57147;53.582;10.112;2023-04-24T10:30:53;8.65;;;6.78;;
69856;SDS011;57147;53.582;10.112;2023-04-24T10:35:55;7.75;;;6.22;;
69856;SDS011;57147;53.582;10.112;2023-04-24T10:40:59;7.72;;;6.93;;
69856;SDS011;57147;53.582;10.112;2023-04-24T10:46:08;9.23;;;8.32;;
69856;SDS011;57147;53.582;10.112;2023-04-24T10:51:10;11.25;;;6.85;;
69856;SDS011;57147;53.582;10.112;2023-04-24T10:56:15;9.02;;;7.10;;
69856;SDS011;57147;53.582;10.112;2023-04-24T11:01:23;9.40;;;7.15;;
69856;SDS011;57147;53.582;10.112;2023-04-24T11:06:28;11.50;;;8.13;;
69856;SDS011;57147;53.582;10.112;2023-04-24T11:11:32;8.27;;;6.78;;
69856;SDS011;57147;53.582;10.112;2023-04-24T11:16:34;11.65;;;9.73;;
69856;SDS011;57147;53.582;10.112;2023-04-24T11:21:57;8.23;;;6.47;;
69856;SDS011;57147;53.582;10.112;2023-04-24T11:27:05;8.75;;;7.13;;
69856;SDS011;57147;53.582;10.112;2023-04-24T11:32:16;9.82;;;6.60;;
69856;SDS011;57147;53.582;10.112;2023-04-24T11:37:18;8.48;;;6.85;;
69856;SDS011;57147;53.582;10.112;2023-04-24T11:42:21;8.60;;;6.20;;
69856;SDS011;57147;53.582;10.112;2023-04-24T11:47:28;8.48;;;7.05;;
69856;SDS011;57147;53.582;10.112;2023-04-24T11:52:29;9.85;;;7.20;;
69856;SDS011;57147;53.582;10.112;2023-04-24T11:57:33;8.45;;;7.50;;
69856;SDS011;57147;53.582;10.112;2023-04-24T12:02:33;7.72;;;6.00;;
69856;SDS011;57147;53.582;10.112;2023-04-24T12:07:39;9.35;;;5.28;;
69856;SDS011;57147;53.582;10.112;2023-04-24T12:12:43;6.35;;;4.85;;
69856;SDS011;57147;53.582;10.112;2023-04-24T12:22:46;6.28;;;4.68;;
69856;SDS011;57147;53.582;10.112;2023-04-24T12:27:54;7.25;;;6.28;;
69856;SDS011;57147;53.582;10.112;2023-04-24T12:33:08;4.45;;;3.97;;
69856;SDS011;57147;53.582;10.112;2023-04-24T12:38:09;5.78;;;4.38;;
69856;SDS011;57147;53.582;10.112;2023-04-24T12:43:16;4.93;;;4.28;;
69856;SDS011;57147;53.582;10.112;2023-04-24T12:48:18;6.97;;;4.65;;
69856;SDS011;57147;53.582;10.112;2023-04-24T12:53:19;6.18;;;5.47;;
69856;SDS011;57147;53.582;10.112;2023-04-24T12:58:22;6.85;;;3.92;;
69856;SDS011;57147;53.582;10.112;2023-04-24T13:03:23;5.03;;;4.20;;
69856;SDS011;57147;53.582;10.112;2023-04-24T13:08:24;5.57;;;3.08;;
69856;SDS011;57147;53.582;10.112;2023-04-24T13:13:27;4.47;;;4.03;;
69856;SDS011;57147;53.582;10.112;2023-04-24T13:18:28;5.63;;;3.58;;
69856;SDS011;57147;53.582;10.112;2023-04-24T13:23:28;4.47;;;3.80;;
69856;SDS011;57147;53.582;10.112;2023-04-24T13:28:32;5.38;;;4.88;;
69856;SDS011;57147;53.582;10.112;2023-04-24T13:33:32;5.20;;;4.50;;
69856;SDS011;57147;53.582;10.112;2023-04-24T13:38:33;6.95;;;5.32;;
69856;SDS011;57147;53.582;10.112;2023-04-24T13:43:36;5.18;;;3.90;;
69856;SDS011;57147;53.582;10.112;2023-04-24T13:48:37;6.38;;;4.97;;
69856;SDS011;57147;53.582;10.112;2023-04-24T13:53:38;4.45;;;3.92;;
69856;SDS011;57147;53.582;10.112;2023-04-24T13:58:41;4.93;;;4.35;;
69856;SDS011;57147;53.582;10.112;2023-04-24T14:03:42;4.38;;;3.97;;
69856;SDS011;57147;53.582;10.112;2023-04-24T14:08:42;5.68;;;4.72;;
69856;SDS011;57147;53.582;10.112;2023-04-24T14:13:46;7.03;;;4.68;;
69856;SDS011;57147;53.582;10.112;2023-04-24T14:18:46;6.80;;;5.45;;
69856;SDS011;57147;53.582;10.112;2023-04-24T14:23:47;5.63;;;4.93;;
69856;SDS011;57147;53.582;10.112;2023-04-24T14:28:50;5.63;;;4.85;;
69856;SDS011;57147;53.582;10.112;2023-04-24T14:33:51;5.47;;;4.97;;
69856;SDS011;57147;53.582;10.112;2023-04-24T14:38:52;4.55;;;4.15;;
69856;SDS011;57147;53.582;10.112;2023-04-24T14:43:55;4.90;;;4.30;;
69856;SDS011;57147;53.582;10.112;2023-04-24T14:48:56;6.65;;;4.38;;
69856;SDS011;57147;53.582;10.112;2023-04-24T14:53:56;4.80;;;3.40;;
69856;SDS011;57147;53.582;10.112;2023-04-24T14:59:01;5.22;;;4.32;;
69856;SDS011;57147;53.582;10.112;2023-04-24T15:04:02;6.65;;;6.05;;
69856;SDS011;57147;53.582;10.112;2023-04-24T15:09:02;7.97;;;6.55;;
69856;SDS011;57147;53.582;10.112;2023-04-24T15:14:06;7.70;;;6.90;;
69856;SDS011;57147;53.582;10.112;2023-04-24T15:19:06;7.22;;;6.00;;
69856;SDS011;57147;53.582;10.112;2023-04-24T15:24:07;5.35;;;4.47;;
69856;SDS011;57147;53.582;10.112;2023-04-24T15:29:11;5.60;;;4.20;;
69856;SDS011;57147;53.582;10.112;2023-04-24T15:34:11;5.22;;;3.95;;
69856;SDS011;57147;53.582;10.112;2023-04-24T15:39:12;3.20;;;2.10;;
69856;SDS011;57147;53.582;10.112;2023-04-24T15:44:15;3.50;;;2.55;;
69856;SDS011;57147;53.582;10.112;2023-04-24T15:49:16;3.50;;;2.08;;
69856;SDS011;57147;53.582;10.112;2023-04-24T15:54:17;2.15;;;1.58;;
69856;SDS011;57147;53.582;10.112;2023-04-24T15:59:20;4.28;;;2.80;;
69856;SDS011;57147;53.582;10.112;2023-04-24T16:04:21;6.78;;;4.20;;
69856;SDS011;57147;53.582;10.112;2023-04-24T16:09:22;7.63;;;4.22;;
69856;SDS011;57147;53.582;10.112;2023-04-24T16:14:26;8.13;;;5.55;;
69856;SDS011;57147;53.582;10.112;2023-04-24T16:19:27;9.30;;;5.82;;
69856;SDS011;57147;53.582;10.112;2023-04-24T16:24:29;8.77;;;5.03;;
69856;SDS011;57147;53.582;10.112;2023-04-24T16:29:37;9.25;;;6.55;;
69856;SDS011;57147;53.582;10.112;2023-04-24T16:34:38;11.02;;;6.85;;
69856;SDS011;57147;53.582;10.112;2023-04-24T16:39:38;5.28;;;3.53;;
69856;SDS011;57147;53.582;10.112;2023-04-24T16:44:42;6.18;;;3.63;;
69856;SDS011;57147;53.582;10.112;2023-04-24T16:49:42;2.92;;;2.20;;
69856;SDS011;57147;53.582;10.112;2023-04-24T16:54:43;4.63;;;2.85;;
69856;SDS011;57147;53.582;10.112;2023-04-24T16:59:46;5.18;;;3.33;;
69856;SDS011;57147;53.582;10.112;2023-04-24T17:04:47;3.97;;;2.80;;
69856;SDS011;57147;53.582;10.112;2023-04-24T17:09:48;7.13;;;6.07;;
69856;SDS011;57147;53.582;10.112;2023-04-24T17:14:52;6.97;;;5.32;;
69856;SDS011;57147;53.582;10.112;2023-04-24T17:19:52;8.13;;;4.47;;
69856;SDS011;57147;53.582;10.112;2023-04-24T17:24:53;10.25;;;6.90;;
69856;SDS011;57147;53.582;10.112;2023-04-24T17:29:56;6.68;;;4.93;;
69856;SDS011;57147;53.582;10.112;2023-04-24T17:34:58;7.90;;;4.60;;
69856;SDS011;57147;53.582;10.112;2023-04-24T17:39:58;8.80;;;5.38;;
69856;SDS011;57147;53.582;10.112;2023-04-24T17:45:02;9.57;;;5.35;;
69856;SDS011;57147;53.582;10.112;2023-04-24T17:50:03;9.20;;;5.90;;
69856;SDS011;57147;53.582;10.112;2023-04-24T17:55:05;10.65;;;5.80;;
69856;SDS011;57147;53.582;10.112;2023-04-24T18:00:09;7.10;;;3.72;;
69856;SDS011;57147;53.582;10.112;2023-04-24T18:05:11;10.90;;;6.05;;
69856;SDS011;57147;53.582;10.112;2023-04-24T18:10:14;8.73;;;4.75;;
69856;SDS011;57147;53.582;10.112;2023-04-24T18:15:17;9.05;;;5.47;;
69856;SDS011;57147;53.582;10.112;2023-04-24T18:20:18;10.68;;;5.38;;
69856;SDS011;57147;53.582;10.112;2023-04-24T18:25:22;12.63;;;7.47;;
69856;SDS011;57147;53.582;10.112;2023-04-24T18:30:25;11.15;;;4.85;;
69856;SDS011;57147;53.582;10.112;2023-04-24T18:35:26;10.00;;;6.05;;
69856;SDS011;57147;53.582;10.112;2023-04-24T18:40:27;10.88;;;5.70;;
69856;SDS011;57147;53.582;10.112;2023-04-24T18:45:30;8.10;;;3.53;;
69856;SDS011;57147;53.582;10.112;2023-04-24T18:50:31;6.75;;;5.63;;
69856;SDS011;57147;53.582;10.112;2023-04-24T18:55:31;5.38;;;3.30;;
69856;SDS011;57147;53.582;10.112;2023-04-24T19:00:35;5.40;;;2.08;;
69856;SDS011;57147;53.582;10.112;2023-04-24T19:05:35;4.95;;;2.78;;
69856;SDS011;57147;53.582;10.112;2023-04-24T19:10:36;6.03;;;3.20;;
69856;SDS011;57147;53.582;10.112;2023-04-24T19:15:39;4.95;;;3.05;;
69856;SDS011;57147;53.582;10.112;2023-04-24T19:20:45;3.42;;;1.52;;
69856;SDS011;57147;53.582;10.112;2023-04-24T19:25:46;4.60;;;2.58;;
69856;SDS011;57147;53.582;10.112;2023-04-24T19:30:50;3.85;;;3.22;;
69856;SDS011;57147;53.582;10.112;2023-04-24T19:35:51;6.30;;;4.80;;
69856;SDS011;57147;53.582;10.112;2023-04-24T19:40:52;5.18;;;2.63;;
69856;SDS011;57147;53.582;10.112;2023-04-24T19:45:56;4.88;;;3.13;;
69856;SDS011;57147;53.582;10.112;2023-04-24T19:50:57;4.82;;;2.80;;
69856;SDS011;57147;53.582;10.112;2023-04-24T19:55:58;3.97;;;1.98;;
69856;SDS011;57147;53.582;10.112;2023-04-24T20:01:01;4.85;;;1.90;;
69856;SDS011;57147;53.582;10.112;2023-04-24T20:06:01;7.55;;;3.90;;
69856;SDS011;57147;53.582;10.112;2023-04-24T20:11:02;6.68;;;4.13;;
69856;SDS011;57147;53.582;10.112;2023-04-24T20:16:05;6.78;;;3.35;;
69856;SDS011;57147;53.582;10.112;2023-04-24T20:21:07;5.25;;;3.38;;
69856;SDS011;57147;53.582;10.112;2023-04-24T20:26:08;5.40;;;3.15;;
69856;SDS011;57147;53.582;10.112;2023-04-24T20:36:17;8.63;;;3.75;;
69856;SDS011;57147;53.582;10.112;2023-04-24T20:41:17;7.43;;;5.57;;
69856;SDS011;57147;53.582;10.112;2023-04-24T20:46:21;5.00;;;3.08;;
69856;SDS011;57147;53.582;10.112;2023-04-24T20:51:21;9.93;;;3.30;;
69856;SDS011;57147;53.582;10.112;2023-04-24T20:56:22;7.32;;;4.60;;
69856;SDS011;57147;53.582;10.112;2023-04-24T21:01:25;6.95;;;3.30;;
69856;SDS011;57147;53.582;10.112;2023-04-24T21:06:26;5.25;;;3.05;;
69856;SDS011;57147;53.582;10.112;2023-04-24T21:11:26;5.95;;;2.78;;
69856;SDS011;57147;53.582;10.112;2023-04-24T21:16:30;6.13;;;3.03;;
69856;SDS011;57147;53.582;10.112;2023-04-24T21:21:30;6.20;;;2.42;;
69856;SDS011;57147;53.582;10.112;2023-04-24T21:26:31;6.22;;;3.00;;
69856;SDS011;57147;53.582;10.112;2023-04-24T21:31:35;5.85;;;3.95;;
69856;SDS011;57147;53.582;10.112;2023-04-24T21:36:36;8.32;;;4.10;;
69856;SDS011;57147;53.582;10.112;2023-04-24T21:41:36;10.00;;;4.28;;
69856;SDS011;57147;53.582;10.112;2023-04-24T21:46:40;8.07;;;3.70;;
69856;SDS011;57147;53.582;10.112;2023-04-24T21:51:40;7.80;;;4.03;;
69856;SDS011;57147;53.582;10.112;2023-04-24T21:56:41;9.23;;;3.85;;
69856;SDS011;57147;53.582;10.112;2023-04-24T22:01:44;6.68;;;3.58;;
69856;SDS011;57147;53.582;10.112;2023-04-24T22:06:45;7.28;;;3.65;;
69856;SDS011;57147;53.582;10.112;2023-04-24T22:11:45;8.25;;;3.35;;
69856;SDS011;57147;53.582;10.112;2023-04-24T22:16:49;6.97;;;3.47;;
69856;SDS011;57147;53.582;10.112;2023-04-24T22:21:49;7.18;;;4.50;;
69856;SDS011;57147;53.582;10.112;2023-04-24T22:26:50;7.45;;;2.85;;
69856;SDS011;57147;53.582;10.112;2023-04-24T22:31:54;5.95;;;3.40;;
69856;SDS011;57147;53.582;10.112;2023-04-24T22:36:54;8.05;;;3.97;;
69856;SDS011;57147;53.582;10.112;2023-04-24T22:41:55;7.25;;;4.43;;
69856;SDS011;57147;53.582;10.112;2023-04-24T22:46:58;7.45;;;3.95;;
69856;SDS011;57147;53.582;10.112;2023-04-24T22:51:59;9.13;;;4.25;;
69856;SDS011;57147;53.582;10.112;2023-04-24T22:56:59;8.45;;;4.10;;
69856;SDS011;57147;53.582;10.112;2023-04-24T23:02:03;11.70;;;4.90;;
69856;SDS011;57147;53.582;10.112;2023-04-24T23:07:03;7.13;;;4.65;;
69856;SDS011;57147;53.582;10.112;2023-04-24T23:12:04;8.82;;;4.82;;
69856;SDS011;57147;53.582;10.112;2023-04-24T23:17:07;7.00;;;4.35;;
69856;SDS011;57147;53.582;10.112;2023-04-24T23:22:08;8.88;;;4.53;;
69856;SDS011;57147;53.582;10.112;2023-04-24T23:27:09;7.88;;;4.10;;
69856;SDS011;57147;53.582;10.112;2023-04-24T23:32:12;8.68;;;4.93;;
69856;SDS011;57147;53.582;10.112;2023-04-24T23:37:12;6.97;;;4.57;;
69856;SDS011;57147;53.582;10.112;2023-04-24T23:42:13;6.53;;;4.22;;
69856;SDS011;57147;53.582;10.112;2023-04-24T23:47:16;8.23;;;5.85;;
69856;SDS011;57147;53.582;10.112;2023-04-24T23:52:17;11.65;;;5.18;;
69856;SDS011;57147;53.582;10.112;2023-04-24T23:57:18;9.15;;;4.88;;
